Time;durP1;ratioP1;P1;durP2;ratioP2;P2;SDS_P1;SDS_P2;PMS_P1;PMS_P2;Temp;Humidity;BMP_temperature;BMP_pressure;BME280_temperature;BME280_humidity;BME280_pressure;Samples;Min_cycle;Max_cycle;Signal;HPM_P1;HPM_P2
2022/09/03 00:00:10;;;;;;;2.05;1.63;;;;;;;21.85;33.55;100957.34;5091761;28;20039;-69
2022/09/03 00:02:51;;;;;;;4.60;1.73;;;;;;;21.81;33.39;100953.25;5090674;28;20044;-69
2022/09/03 00:05:28;;;;;;;4.72;2.00;;;;;;;21.77;33.29;100957.38;5086093;28;20040;-69
2022/09/03 00:08:09;;;;;;;6.15;2.00;;;;;;;21.72;33.43;100962.53;5053461;28;20127;-69
2022/09/03 00:10:45;;;;;;;3.50;1.77;;;;;;;21.70;33.47;100953.66;5071254;28;20495;-69
2022/09/03 00:14:02;;;;;;;4.32;1.70;;;;;;;21.63;33.60;100955.41;5071047;28;20529;-70
2022/09/03 00:16:40;;;;;;;4.80;2.13;;;;;;;21.62;33.65;100951.81;5032318;28;20059;-70
2022/09/03 00:19:07;;;;;;;6.88;2.10;;;;;;;21.60;33.91;100955.78;5091288;28;20040;-69
2022/09/03 00:21:43;;;;;;;5.45;1.95;;;;;;;21.57;33.52;100959.72;5091321;28;20409;-69
2022/09/03 00:24:17;;;;;;;5.60;2.10;;;;;;;21.55;33.84;100950.81;5092166;28;20123;-70
2022/09/03 00:26:53;;;;;;;3.72;2.20;;;;;;;21.52;33.67;100957.47;5089806;28;20044;-70
2022/09/03 00:29:37;;;;;;;3.88;1.92;;;;;;;21.49;34.10;100957.84;5090993;28;20078;-69
2022/09/03 00:32:13;;;;;;;2.88;1.90;;;;;;;21.47;34.25;100953.56;5091237;28;20449;-69
2022/09/03 00:34:48;;;;;;;3.38;2.00;;;;;;;21.44;34.32;100952.03;5089024;28;20036;-69
2022/09/03 00:37:15;;;;;;;4.45;1.80;;;;;;;21.43;34.04;100958.53;5071190;28;20048;-69
2022/09/03 00:39:42;;;;;;;4.10;1.92;;;;;;;21.41;34.34;100952.41;5070895;28;20399;-69
2022/09/03 00:42:23;;;;;;;5.47;1.90;;;;;;;21.39;34.16;100954.47;5052849;28;20072;-69
2022/09/03 00:44:56;;;;;;;2.95;1.83;;;;;;;21.38;34.44;100955.47;5039623;28;20074;-70
2022/09/03 00:48:05;;;;;;;4.63;1.95;;;;;;;21.34;34.26;100962.34;5091183;28;20081;-69
2022/09/03 00:50:51;;;;;;;2.40;1.80;;;;;;;21.34;34.49;100959.59;5044960;28;20561;-69
2022/09/03 00:53:46;;;;;;;2.78;2.00;;;;;;;21.31;34.61;100965.41;5091217;28;20052;-69
2022/09/03 00:56:39;;;;;;;2.95;2.47;;;;;;;21.28;34.39;100970.38;5072126;28;20051;-69
2022/09/03 00:59:20;;;;;;;2.70;1.95;;;;;;;21.27;34.60;100965.94;5091282;28;20115;-68
2022/09/03 01:02:02;;;;;;;4.72;2.13;;;;;;;21.25;34.54;100966.97;5069510;28;20537;-70
2022/09/03 01:05:17;;;;;;;3.65;1.90;;;;;;;21.23;34.58;100965.44;5053004;28;20578;-69
2022/09/03 01:07:53;;;;;;;7.03;2.10;;;;;;;21.25;34.95;100963.38;5033660;28;20045;-70
2022/09/03 01:10:26;;;;;;;5.82;1.75;;;;;;;21.23;34.66;100963.56;5075259;28;20055;-69
2022/09/03 01:13:07;;;;;;;3.15;2.10;;;;;;;21.23;35.11;100969.03;5091016;28;20044;-69
2022/09/03 01:15:58;;;;;;;2.78;1.83;;;;;;;21.23;34.95;100959.97;5090896;28;20040;-69
2022/09/03 01:18:36;;;;;;;7.25;2.30;;;;;;;21.23;35.04;100952.63;5090973;28;20052;-69
2022/09/03 01:21:35;;;;;;;3.60;1.92;;;;;;;21.19;35.00;100956.72;5062885;28;20411;-70
2022/09/03 01:24:16;;;;;;;3.60;2.13;;;;;;;21.19;34.89;100958.59;5071053;28;20041;-70
2022/09/03 01:26:56;;;;;;;6.00;2.20;;;;;;;21.18;35.35;100963.22;5071142;28;20039;-69
2022/09/03 01:29:32;;;;;;;2.67;1.90;;;;;;;21.20;34.99;100963.03;5070649;28;20514;-69
2022/09/03 01:31:59;;;;;;;3.08;2.00;;;;;;;21.17;35.13;100963.38;5074235;28;20041;-69
2022/09/03 01:34:41;;;;;;;4.22;2.30;;;;;;;21.16;35.17;100957.06;5074443;28;20102;-68
2022/09/03 01:37:19;;;;;;;5.32;2.55;;;;;;;21.14;35.52;100966.47;5075220;28;20051;-68
2022/09/03 01:40:17;;;;;;;3.28;2.00;;;;;;;21.15;35.27;100969.00;5074260;28;20037;-69
2022/09/03 01:42:53;;;;;;;4.78;2.63;;;;;;;21.13;35.57;100962.03;5073986;28;20118;-68
2022/09/03 01:45:39;;;;;;;3.70;2.50;;;;;;;21.09;35.53;100964.25;5074308;28;20505;-69
2022/09/03 01:48:26;;;;;;;7.55;2.17;;;;;;;21.09;35.57;100960.66;5084267;28;20094;-69
2022/09/03 01:51:07;;;;;;;2.53;1.80;;;;;;;21.08;35.33;100962.56;5076886;28;20051;-69
2022/09/03 01:54:07;;;;;;;4.05;2.03;;;;;;;21.06;35.54;100967.34;5076121;28;20047;-69
2022/09/03 01:57:14;;;;;;;2.67;1.65;;;;;;;21.03;35.31;100964.09;5094594;28;20127;-69
2022/09/03 02:00:15;;;;;;;4.72;2.17;;;;;;;20.98;35.37;100961.03;5073811;28;20041;-68
2022/09/03 02:02:46;;;;;;;4.28;2.10;;;;;;;20.96;35.77;100966.66;5073889;28;20041;-69
2022/09/03 02:05:18;;;;;;;3.20;2.10;;;;;;;20.93;35.48;100959.69;5074087;28;20040;-69
2022/09/03 02:07:47;;;;;;;4.35;2.40;;;;;;;20.90;35.61;100961.91;5074175;28;20063;-69
2022/09/03 02:10:17;;;;;;;3.60;2.15;;;;;;;20.87;35.60;100957.66;5073657;28;20414;-69
2022/09/03 02:12:50;;;;;;;3.70;2.10;;;;;;;20.86;35.92;100961.41;5074385;28;20041;-70
2022/09/03 02:15:21;;;;;;;3.90;1.90;;;;;;;20.84;35.53;100952.53;5074161;28;20514;-69
2022/09/03 02:17:52;;;;;;;3.30;1.98;;;;;;;20.83;35.65;100958.16;5073692;28;20066;-70
2022/09/03 02:20:22;;;;;;;3.75;2.60;;;;;;;20.81;35.58;100954.75;5074351;28;20045;-69
2022/09/03 02:22:49;;;;;;;4.43;2.40;;;;;;;20.76;35.88;100947.06;5074061;28;20433;-69
2022/09/03 02:25:22;;;;;;;4.65;2.50;;;;;;;20.73;35.88;100952.00;5074236;28;20041;-69
2022/09/03 02:27:50;;;;;;;7.05;2.33;;;;;;;20.71;35.95;100951.31;5073726;28;20048;-69
2022/09/03 02:30:17;;;;;;;6.68;2.10;;;;;;;20.68;35.84;100944.34;5073446;28;20098;-70
2022/09/03 02:32:44;;;;;;;3.00;2.13;;;;;;;20.69;36.13;100953.38;5081568;28;20028;-69
2022/09/03 02:35:11;;;;;;;2.42;2.05;;;;;;;20.67;35.77;100953.53;5094173;28;20445;-70
2022/09/03 02:37:39;;;;;;;5.30;2.10;;;;;;;20.65;36.07;100954.75;5094833;28;20070;-69
2022/09/03 02:40:08;;;;;;;4.35;2.20;;;;;;;20.66;35.98;100957.31;5094459;28;20272;-69
2022/09/03 02:42:35;;;;;;;3.95;2.00;;;;;;;20.65;36.45;100957.47;5086903;28;20071;-69
2022/09/03 02:45:08;;;;;;;7.97;2.40;;;;;;;20.61;36.42;100954.22;5073050;28;20040;-70
2022/09/03 02:47:39;;;;;;;4.15;2.38;;;;;;;20.58;36.41;100957.31;5072856;28;20076;-70
2022/09/03 02:50:06;;;;;;;4.45;2.00;;;;;;;20.55;36.14;100954.91;5072834;28;20044;-69
2022/09/03 02:52:32;;;;;;;6.88;2.30;;;;;;;20.52;36.07;100947.94;5073058;28;20045;-70
2022/09/03 02:54:59;;;;;;;3.50;2.22;;;;;;;20.52;36.63;100947.94;5072790;28;20376;-71
2022/09/03 02:57:26;;;;;;;4.13;1.85;;;;;;;20.52;36.29;100947.94;5072760;28;20048;-69
2022/09/03 02:59:53;;;;;;;6.25;2.10;;;;;;;20.49;36.30;100950.16;5072594;28;20075;-69
2022/09/03 03:02:20;;;;;;;3.60;1.75;;;;;;;20.46;36.80;100943.16;5073417;28;20033;-68
2022/09/03 03:04:50;;;;;;;2.53;1.70;;;;;;;20.45;36.31;100946.06;5072640;28;20044;-69
2022/09/03 03:07:17;;;;;;;2.63;1.77;;;;;;;20.47;36.75;100949.47;5072632;28;20044;-69
2022/09/03 03:09:43;;;;;;;3.80;1.80;;;;;;;20.45;36.81;100952.38;5072428;28;20044;-69
2022/09/03 03:12:10;;;;;;;4.50;1.90;;;;;;;20.45;36.44;100955.09;5072321;28;20036;-70
2022/09/03 03:14:36;;;;;;;6.40;2.10;;;;;;;20.44;36.45;100950.66;5072806;28;20056;-69
2022/09/03 03:17:03;;;;;;;4.78;1.70;;;;;;;20.42;36.83;100952.69;5072232;28;20048;-69
2022/09/03 03:19:30;;;;;;;3.80;2.03;;;;;;;20.39;36.74;100947.59;5074587;28;20128;-69
2022/09/03 03:21:57;;;;;;;3.38;1.95;;;;;;;20.37;36.77;100944.16;5074771;28;20040;-69
2022/09/03 03:24:25;;;;;;;7.60;2.28;;;;;;;20.36;36.79;100944.31;5073611;28;20044;-69
2022/09/03 03:26:56;;;;;;;3.88;1.92;;;;;;;20.35;36.64;100943.47;5072195;28;20056;-69
2022/09/03 03:29:24;;;;;;;6.22;1.67;;;;;;;20.33;36.62;100941.94;5072251;28;20049;-69
2022/09/03 03:31:51;;;;;;;4.50;1.75;;;;;;;20.29;37.06;100945.00;5072011;28;20049;-69
2022/09/03 03:34:21;;;;;;;3.08;1.83;;;;;;;20.26;37.12;100950.78;5072038;28;20414;-69
2022/09/03 03:36:48;;;;;;;2.40;1.80;;;;;;;20.26;36.75;100949.94;5071502;28;20052;-71
2022/09/03 03:39:15;;;;;;;5.60;2.00;;;;;;;20.26;37.02;100947.22;5053855;28;20406;-70
2022/09/03 03:41:41;;;;;;;3.20;1.90;;;;;;;20.26;36.97;100945.34;5071917;28;20040;-70
2022/09/03 03:44:10;;;;;;;5.63;2.17;;;;;;;20.23;37.05;100947.53;5072053;28;20033;-70
2022/09/03 03:46:38;;;;;;;6.53;2.13;;;;;;;20.22;37.05;100951.28;5071973;28;20037;-69
2022/09/03 03:49:06;;;;;;;3.63;2.15;;;;;;;20.19;37.04;100938.84;5071623;28;20494;-70
2022/09/03 03:51:34;;;;;;;3.72;2.00;;;;;;;20.18;37.37;100952.66;5053769;28;20055;-70
2022/09/03 03:54:02;;;;;;;3.95;2.30;;;;;;;20.15;37.13;100948.41;5071394;28;20044;-70
2022/09/03 03:56:31;;;;;;;4.68;2.25;;;;;;;20.15;37.32;100944.81;5071724;28;20036;-70
2022/09/03 03:58:58;;;;;;;5.80;2.13;;;;;;;20.12;37.47;100943.28;5071584;28;20483;-69
2022/09/03 04:01:26;;;;;;;5.88;2.33;;;;;;;20.09;37.61;100937.31;5071575;28;20052;-69
2022/09/03 04:03:58;;;;;;;4.25;1.92;;;;;;;20.05;37.70;100944.94;5085388;28;20036;-69
2022/09/03 04:06:27;;;;;;;3.25;2.05;;;;;;;20.05;37.76;100935.91;5091757;28;20048;-69
2022/09/03 04:08:54;;;;;;;4.82;2.28;;;;;;;20.05;37.61;100942.22;5091633;28;20486;-69
2022/09/03 04:11:22;;;;;;;6.47;2.22;;;;;;;20.05;37.60;100941.34;5082937;28;20040;-69
2022/09/03 04:13:52;;;;;;;4.07;2.13;;;;;;;20.02;37.42;100945.28;5071499;28;20059;-69
2022/09/03 04:16:22;;;;;;;4.88;2.40;;;;;;;20.00;37.47;100936.41;5071318;28;20048;-69
2022/09/03 04:18:50;;;;;;;3.90;2.40;;;;;;;19.98;37.90;100941.19;5071319;28;20491;-69
2022/09/03 04:21:19;;;;;;;2.78;1.98;;;;;;;19.97;37.91;100942.19;5078553;28;20063;-70
2022/09/03 04:23:49;;;;;;;4.15;2.03;;;;;;;19.95;38.02;100936.06;5091574;28;20033;-70
2022/09/03 04:26:30;;;;;;;3.00;1.98;;;;;;;19.94;37.99;100932.47;5073481;28;20044;-70
2022/09/03 04:28:59;;;;;;;5.53;2.28;;;;;;;19.95;37.96;100938.78;5075594;28;20214;-70
2022/09/03 04:31:27;;;;;;;3.13;2.15;;;;;;;19.93;38.17;100933.50;5072661;28;20174;-70
2022/09/03 04:33:57;;;;;;;3.28;2.40;;;;;;;19.92;37.84;100941.84;5091852;28;20490;-69
2022/09/03 04:36:25;;;;;;;3.05;1.85;;;;;;;19.89;38.05;100937.59;5091538;28;20056;-70
2022/09/03 04:38:53;;;;;;;3.45;1.90;;;;;;;19.87;37.95;100931.44;5076123;28;20063;-71
2022/09/03 04:41:25;;;;;;;3.70;2.15;;;;;;;19.84;38.22;100934.50;5071602;28;20119;-69
2022/09/03 04:43:56;;;;;;;3.25;2.15;;;;;;;19.83;38.28;100935.53;5071653;28;20055;-69
2022/09/03 04:46:26;;;;;;;4.75;2.35;;;;;;;19.80;38.00;100929.56;5071201;28;20044;-69
2022/09/03 04:48:54;;;;;;;4.75;2.30;;;;;;;19.76;37.89;100933.63;5071814;28;20349;-69
2022/09/03 04:51:23;;;;;;;6.10;2.30;;;;;;;19.73;38.41;100931.25;5071298;28;20402;-69
2022/09/03 04:53:56;;;;;;;5.65;2.20;;;;;;;19.69;38.18;100928.00;5071014;28;20044;-70
2022/09/03 04:56:25;;;;;;;6.97;2.25;;;;;;;19.66;38.30;100934.63;5071290;28;20051;-70
2022/09/03 04:58:57;;;;;;;7.25;2.58;;;;;;;19.66;38.16;100942.81;5088620;28;20044;-70
2022/09/03 05:01:26;;;;;;;6.88;2.33;;;;;;;19.66;38.51;100944.69;5091376;28;20055;-70
2022/09/03 05:03:58;;;;;;;5.82;2.38;;;;;;;19.65;38.63;100935.66;5091465;28;20040;-70
2022/09/03 05:06:26;;;;;;;3.65;2.08;;;;;;;19.67;38.89;100938.22;5094269;28;20051;-70
2022/09/03 05:08:54;;;;;;;3.72;2.20;;;;;;;19.65;38.76;100940.25;5095455;28;20055;-70
2022/09/03 05:11:22;;;;;;;3.28;2.10;;;;;;;19.63;38.80;100937.69;5095607;28;20391;-69
2022/09/03 05:13:56;;;;;;;4.88;2.55;;;;;;;19.60;38.82;100935.28;5095811;28;20040;-68
2022/09/03 05:16:25;;;;;;;6.85;2.58;;;;;;;19.58;38.92;100937.34;5093849;28;20051;-68
2022/09/03 05:18:53;;;;;;;3.25;2.20;;;;;;;19.57;39.04;100946.53;5095057;28;20078;-69
2022/09/03 05:21:21;;;;;;;4.05;2.33;;;;;;;19.59;39.09;100949.09;5095521;28;20533;-69
2022/09/03 05:23:49;;;;;;;2.97;1.90;;;;;;;19.59;38.73;100939.03;5095290;28;20044;-69
2022/09/03 05:26:22;;;;;;;5.10;2.50;;;;;;;19.59;38.79;100940.91;5076632;28;20032;-69
2022/09/03 05:28:53;;;;;;;2.42;1.77;;;;;;;19.57;38.81;100938.34;5095350;28;20047;-68
2022/09/03 05:31:21;;;;;;;5.28;2.42;;;;;;;19.57;39.21;100935.63;5095310;28;20421;-69
2022/09/03 05:33:51;;;;;;;4.07;2.20;;;;;;;19.58;38.91;100937.34;5095099;28;20040;-69
2022/09/03 05:36:21;;;;;;;3.63;2.20;;;;;;;19.59;39.17;100940.91;5075689;28;20483;-70
2022/09/03 05:38:49;;;;;;;4.10;2.40;;;;;;;19.60;39.36;100935.28;5057054;28;20045;-69
2022/09/03 05:41:17;;;;;;;6.03;2.05;;;;;;;19.62;39.02;100938.72;5074153;28;20047;-70
2022/09/03 05:43:50;;;;;;;3.55;2.30;;;;;;;19.61;39.07;100937.00;5074153;28;20045;-69
2022/09/03 05:46:17;;;;;;;4.25;2.22;;;;;;;19.63;39.32;100940.41;5093956;28;20043;-68
2022/09/03 05:48:44;;;;;;;4.63;1.98;;;;;;;19.64;39.04;100942.13;5076068;28;20040;-69
2022/09/03 05:51:16;;;;;;;3.47;1.98;;;;;;;19.67;39.19;100940.94;5094193;28;20040;-69
2022/09/03 05:53:45;;;;;;;5.32;2.35;;;;;;;19.72;39.49;100945.88;5094061;28;20501;-68
2022/09/03 05:56:16;;;;;;;4.88;2.45;;;;;;;19.74;39.28;100947.44;5093939;28;20048;-68
2022/09/03 05:58:47;;;;;;;3.88;2.20;;;;;;;19.76;38.96;100939.09;5094067;28;20044;-70
2022/09/03 06:01:13;;;;;;;3.30;2.13;;;;;;;19.79;39.44;100941.47;5094014;28;20040;-70
2022/09/03 06:03:42;;;;;;;4.55;2.20;;;;;;;19.82;39.28;100941.16;5094103;28;20036;-70
2022/09/03 06:06:10;;;;;;;5.43;2.08;;;;;;;19.87;39.11;100947.81;5091936;28;20072;-70
2022/09/03 06:08:40;;;;;;;5.10;2.00;;;;;;;19.93;39.20;100949.00;5089337;28;20079;-70
2022/09/03 06:11:07;;;;;;;3.25;2.22;;;;;;;19.95;39.24;100956.00;5080897;28;20032;-68
2022/09/03 06:13:36;;;;;;;3.72;2.03;;;;;;;19.98;39.30;100946.63;5073651;28;20044;-69
2022/09/03 06:16:04;;;;;;;2.60;1.95;;;;;;;20.01;39.30;100949.03;5076170;28;20124;-70
2022/09/03 06:18:31;;;;;;;5.07;2.38;;;;;;;20.03;39.25;100940.69;5059629;28;20045;-70
2022/09/03 06:21:00;;;;;;;3.50;2.15;;;;;;;20.05;39.30;100944.94;5053578;28;20041;-70
2022/09/03 06:23:29;;;;;;;3.50;2.10;;;;;;;20.08;39.45;100950.09;5053399;28;20333;-69
2022/09/03 06:26:05;;;;;;;8.27;2.33;;;;;;;20.13;39.37;100946.84;5053373;28;20045;-69
2022/09/03 06:28:33;;;;;;;4.13;2.10;;;;;;;20.19;39.19;100951.63;5053632;28;20410;-68
2022/09/03 06:31:01;;;;;;;3.55;2.20;;;;;;;20.24;39.04;100949.25;5057576;28;20443;-68
2022/09/03 06:33:35;;;;;;;3.20;2.30;;;;;;;20.31;39.51;100958.47;5073277;28;20525;-69
2022/09/03 06:36:05;;;;;;;5.85;2.05;;;;;;;20.38;39.28;100950.44;5054323;28;20052;-68
2022/09/03 06:38:36;;;;;;;8.15;2.45;;;;;;;20.46;38.99;100953.22;5057906;28;20053;-68
2022/09/03 06:41:20;;;;;;;5.28;1.77;;;;;;;20.55;39.34;100950.31;5052702;28;20048;-68
2022/09/03 06:44:03;;;;;;;2.58;2.00;;;;;;;20.66;39.25;100954.56;5053139;28;20518;-69
2022/09/03 06:46:32;;;;;;;4.85;1.92;;;;;;;20.77;39.18;100947.91;5052862;28;20051;-68
2022/09/03 06:48:59;;;;;;;4.97;2.10;;;;;;;20.91;39.11;100947.22;5053974;28;20424;-68
2022/09/03 06:51:27;;;;;;;5.35;1.90;;;;;;;21.02;38.89;100952.31;5072596;28;20513;-68
2022/09/03 06:54:06;;;;;;;4.95;2.20;;;;;;;21.18;38.92;100948.69;5072742;28;20040;-68
2022/09/03 06:56:34;;;;;;;4.85;2.05;;;;;;;21.36;38.79;100946.63;5072066;28;20060;-69
2022/09/03 06:59:13;;;;;;;4.78;1.60;;;;;;;21.53;38.86;100953.72;5070853;28;20040;-69
2022/09/03 07:01:42;;;;;;;8.90;2.13;;;;;;;21.70;38.57;100949.06;5062967;28;20066;-69
2022/09/03 07:04:15;;;;;;;6.22;2.10;;;;;;;21.87;38.25;100953.41;5060022;28;20033;-69
2022/09/03 07:06:46;;;;;;;4.35;1.98;;;;;;;22.04;38.38;100945.97;5071112;28;20127;-69
2022/09/03 07:09:14;;;;;;;3.30;1.73;;;;;;;22.22;37.96;100953.03;5052297;28;20380;-69
2022/09/03 07:11:45;;;;;;;3.22;2.00;;;;;;;22.40;37.87;100951.72;5052390;28;20045;-69
2022/09/03 07:14:19;;;;;;;5.32;1.52;;;;;;;22.65;38.01;100952.38;5052503;28;20045;-69
2022/09/03 07:16:47;;;;;;;4.25;1.58;;;;;;;22.84;37.22;100948.28;5070747;28;20048;-69
2022/09/03 07:19:14;;;;;;;3.47;1.80;;;;;;;23.00;37.56;100948.09;5091945;28;20044;-68
2022/09/03 07:21:41;;;;;;;3.13;1.70;;;;;;;23.22;37.26;100948.25;5092625;28;20043;-68
2022/09/03 07:24:20;;;;;;;5.55;1.60;;;;;;;23.42;36.99;100946.63;5093178;28;20474;-69
2022/09/03 07:26:49;;;;;;;4.40;1.83;;;;;;;23.55;37.04;100945.97;5093142;28;20226;-69
2022/09/03 07:29:18;;;;;;;4.60;1.40;;;;;;;23.69;36.37;100950.59;5093451;28;20036;-69
2022/09/03 07:31:46;;;;;;;3.65;1.60;;;;;;;23.85;36.28;100946.81;5094118;28;20541;-70
2022/09/03 07:34:15;;;;;;;3.22;1.48;;;;;;;24.01;36.10;100941.09;5094434;28;20119;-71
2022/09/03 07:36:48;;;;;;;4.75;1.50;;;;;;;24.14;35.92;100945.84;5092034;28;20080;-70
2022/09/03 07:39:16;;;;;;;1.95;1.35;;;;;;;24.25;35.52;100943.44;5076131;28;20082;-69
2022/09/03 07:41:44;;;;;;;5.15;1.83;;;;;;;24.35;35.56;100944.00;5094820;28;20391;-68
2022/09/03 07:44:18;;;;;;;4.18;1.38;;;;;;;24.45;35.37;100948.31;5095946;28;20079;-70
2022/09/03 07:46:46;;;;;;;2.63;1.30;;;;;;;24.54;35.03;100945.25;5071914;28;20097;-71
2022/09/03 07:49:13;;;;;;;3.47;1.50;;;;;;;24.63;34.94;100945.97;5075447;28;20046;-70
2022/09/03 07:51:40;;;;;;;3.78;1.30;;;;;;;24.73;35.03;100943.72;5075045;28;20044;-72
2022/09/03 07:54:10;;;;;;;4.95;1.58;;;;;;;24.82;34.53;100948.03;5092974;28;20454;-70
2022/09/03 07:56:39;;;;;;;2.58;1.48;;;;;;;24.97;34.66;100948.81;5090439;28;20493;-71
2022/09/03 07:59:06;;;;;;;9.45;1.67;;;;;;;25.14;34.31;100949.34;5074184;28;20418;-70
2022/09/03 08:01:34;;;;;;;2.78;1.20;;;;;;;25.28;34.28;100956.66;5092469;28;20040;-69
2022/09/03 08:04:05;;;;;;;3.13;1.30;;;;;;;25.34;33.97;100954.97;5092730;28;20047;-70
2022/09/03 08:06:38;;;;;;;4.18;1.33;;;;;;;25.42;33.78;100951.22;5091303;28;20448;-69
2022/09/03 08:09:10;;;;;;;5.75;1.35;;;;;;;25.56;33.52;100952.97;5092253;28;20036;-69
2022/09/03 08:11:38;;;;;;;1.80;1.20;;;;;;;25.75;33.69;100959.66;5092204;28;20149;-69
2022/09/03 08:14:11;;;;;;;2.28;1.30;;;;;;;25.90;33.13;100947.44;5092701;28;20040;-69
2022/09/03 08:16:44;;;;;;;3.13;1.30;;;;;;;26.09;33.27;100950.47;5074426;28;20152;-70
2022/09/03 08:19:12;;;;;;;3.72;1.48;;;;;;;26.24;33.13;100964.91;5072038;28;20465;-69
2022/09/03 08:21:40;;;;;;;3.83;1.40;;;;;;;26.37;32.88;100955.84;5072114;28;20762;-70
2022/09/03 08:24:08;;;;;;;3.15;1.45;;;;;;;26.46;32.71;100954.59;5072816;28;20082;-70
2022/09/03 08:26:36;;;;;;;2.30;1.10;;;;;;;26.55;32.33;100965.19;5085716;28;20040;-72
2022/09/03 08:29:04;;;;;;;4.55;1.20;;;;;;;26.67;32.39;100957.16;5092628;28;20044;-70
2022/09/03 08:31:31;;;;;;;4.70;1.30;;;;;;;26.81;32.26;100964.38;5092081;28;20489;-70
2022/09/03 08:34:05;;;;;;;4.55;1.00;;;;;;;26.96;31.98;100966.91;5088148;28;20059;-71
2022/09/03 08:36:37;;;;;;;4.32;1.33;;;;;;;27.06;31.97;100967.38;5086614;28;20522;-70
2022/09/03 08:39:09;;;;;;;4.65;1.27;;;;;;;27.15;31.88;100966.06;5073669;28;20102;-70
2022/09/03 08:41:51;;;;;;;3.72;1.20;;;;;;;27.29;31.54;100968.81;5095541;28;20060;-71
2022/09/03 08:44:48;;;;;;;2.47;1.00;;;;;;;27.43;31.26;100967.72;5095698;28;20036;-70
2022/09/03 08:47:36;;;;;;;3.72;1.13;;;;;;;27.57;31.32;100968.53;5094984;28;20125;-70
2022/09/03 08:50:12;;;;;;;2.92;1.40;;;;;;;27.69;31.00;100967.69;5095924;28;20046;-69
2022/09/03 08:53:00;;;;;;;2.00;1.23;;;;;;;27.78;30.80;100971.88;5095394;28;20416;-69
2022/09/03 08:55:41;;;;;;;1.92;1.05;;;;;;;27.91;30.82;100967.38;5075250;28;20052;-71
2022/09/03 08:58:15;;;;;;;5.60;1.42;;;;;;;28.00;30.65;100961.38;5095035;28;20516;-69
2022/09/03 09:00:47;;;;;;;1.25;1.08;;;;;;;28.08;30.25;100963.03;5094987;28;20408;-70
2022/09/03 09:03:26;;;;;;;2.85;1.23;;;;;;;28.18;30.18;100968.91;5095015;28;20043;-71
2022/09/03 09:06:38;;;;;;;4.07;1.20;;;;;;;28.26;30.15;100960.44;5064838;28;20044;-69
2022/09/03 09:09:26;;;;;;;3.58;1.08;;;;;;;28.36;30.27;100959.94;5064710;28;20064;-69
2022/09/03 09:12:00;;;;;;;5.68;1.67;;;;;;;28.47;29.99;100965.59;5074528;28;20055;-70
2022/09/03 09:14:49;;;;;;;3.80;1.20;;;;;;;28.61;29.85;100962.72;5074981;28;20044;-71
2022/09/03 09:17:37;;;;;;;3.20;1.10;;;;;;;28.75;29.62;100969.84;5074504;28;20044;-70
2022/09/03 09:20:10;;;;;;;4.30;1.05;;;;;;;28.85;29.49;100970.22;5074627;28;20044;-70
2022/09/03 09:22:40;;;;;;;2.90;1.40;;;;;;;28.88;29.43;100961.47;5074371;28;20047;-71
2022/09/03 09:25:13;;;;;;;4.80;1.50;;;;;;;28.91;29.24;100961.00;5079982;28;20040;-71
2022/09/03 09:27:50;;;;;;;4.40;1.08;;;;;;;28.97;29.13;100960.09;5076346;28;20050;-71
2022/09/03 09:30:18;;;;;;;3.42;1.25;;;;;;;29.03;29.29;100962.00;5094760;28;20047;-72
2022/09/03 09:32:46;;;;;;;7.10;1.20;;;;;;;29.08;28.92;100964.06;5091910;28;20059;-70
2022/09/03 09:35:17;;;;;;;4.15;1.40;;;;;;;29.18;28.97;100969.09;5092863;28;20110;-70
2022/09/03 09:37:52;;;;;;;6.93;1.40;;;;;;;29.24;28.78;100959.88;5081743;28;20546;-70
2022/09/03 09:40:41;;;;;;;3.92;1.23;;;;;;;29.32;28.62;100965.09;5073218;28;20051;-70
2022/09/03 09:43:20;;;;;;;5.47;1.27;;;;;;;29.39;28.59;100963.09;5074148;28;20040;-70
2022/09/03 09:45:52;;;;;;;4.45;1.10;;;;;;;29.48;28.65;100956.22;5085206;28;20067;-70
2022/09/03 09:48:36;;;;;;;2.88;1.15;;;;;;;29.62;28.65;100959.69;5093861;28;20047;-71
2022/09/03 09:51:10;;;;;;;4.30;1.20;;;;;;;29.80;28.37;100953.31;5088707;28;20131;-70
2022/09/03 09:53:40;;;;;;;4.40;1.10;;;;;;;29.98;28.33;100954.13;5074737;28;20037;-70
2022/09/03 09:56:07;;;;;;;6.13;1.30;;;;;;;30.17;28.36;100956.88;5074719;28;20506;-70
2022/09/03 09:58:34;;;;;;;4.63;1.70;;;;;;;30.30;27.79;100957.50;5074120;28;20040;-70
2022/09/03 10:01:03;;;;;;;5.65;1.20;;;;;;;30.42;27.84;100957.53;5089569;28;20421;-72
2022/09/03 10:03:36;;;;;;;4.72;1.38;;;;;;;30.46;27.36;100964.31;5094438;28;20036;-71
2022/09/03 10:09:11;;;;;;;2.72;1.20;;;;;;;30.54;26.96;100960.38;5093970;28;20127;-71
2022/09/03 10:11:43;;;;;;;4.27;1.20;;;;;;;30.58;27.15;100953.28;5094197;28;20048;-70
2022/09/03 10:14:26;;;;;;;3.78;1.42;;;;;;;30.60;26.98;100953.91;5094222;28;20301;-71
2022/09/03 10:17:03;;;;;;;4.00;1.40;;;;;;;30.69;26.90;100952.47;5094251;28;20067;-72
2022/09/03 10:22:51;;;;;;;6.32;1.13;;;;;;;30.87;26.92;100946.00;5094479;28;20119;-71
2022/09/03 10:25:56;;;;;;;3.80;1.17;;;;;;;30.97;26.58;100947.06;5094386;28;20119;-71
2022/09/03 10:28:28;;;;;;;4.88;1.10;;;;;;;31.12;26.46;100946.59;5081266;28;20052;-71
2022/09/03 10:31:21;;;;;;;3.53;1.00;;;;;;;31.17;26.37;100949.50;5074064;28;20040;-70
2022/09/03 10:33:58;;;;;;;3.72;1.27;;;;;;;31.19;26.36;100943.72;5074234;28;20040;-72
2022/09/03 10:36:44;;;;;;;2.88;0.93;;;;;;;31.16;25.89;100938.66;5073906;28;20438;-70
2022/09/03 10:39:22;;;;;;;3.28;1.10;;;;;;;31.22;26.31;100940.50;5073655;28;20055;-70
2022/09/03 10:42:09;;;;;;;4.95;1.67;;;;;;;31.33;25.91;100938.78;5073427;28;20052;-69
2022/09/03 10:44:52;;;;;;;3.05;1.20;;;;;;;31.43;25.98;100941.78;5073637;28;20049;-70
2022/09/03 10:47:50;;;;;;;3.92;1.08;;;;;;;31.49;25.69;100936.09;5085848;28;20044;-68
2022/09/03 10:50:29;;;;;;;3.20;1.10;;;;;;;31.56;25.53;100942.34;5093843;28;20040;-69
2022/09/03 10:52:55;;;;;;;3.50;1.10;;;;;;;31.63;25.56;100939.44;5093600;28;20032;-66
2022/09/03 10:55:36;;;;;;;3.08;1.00;;;;;;;31.68;25.31;100945.09;5092833;28;20083;-66
2022/09/03 10:58:47;;;;;;;3.92;1.05;;;;;;;31.74;25.14;100938.59;5092829;28;20047;-67
2022/09/03 11:01:36;;;;;;;3.38;1.48;;;;;;;31.82;25.14;100940.13;5060405;28;20059;-66
2022/09/03 11:04:30;;;;;;;3.95;1.17;;;;;;;31.85;24.94;100936.88;5077567;28;20580;-76
2022/09/03 11:07:06;;;;;;;1.58;0.98;;;;;;;31.89;25.01;100932.50;5092741;28;20489;-73
2022/09/03 11:09:40;;;;;;;1.73;0.77;;;;;;;31.96;24.98;100949.91;5092468;28;20118;-73
2022/09/03 11:12:26;;;;;;;2.35;1.27;;;;;;;32.06;24.97;100936.19;5092447;28;20067;-74
2022/09/03 11:15:09;;;;;;;1.80;1.10;;;;;;;32.08;24.55;100945.13;5074503;28;20375;-76
2022/09/03 11:18:14;;;;;;;3.92;1.15;;;;;;;32.13;24.77;100934.13;5071258;28;20409;-75
2022/09/03 11:20:42;;;;;;;3.25;1.08;;;;;;;32.28;24.68;100941.06;5049958;28;20161;-75
2022/09/03 11:23:12;;;;;;;1.67;1.02;;;;;;;32.37;24.60;100945.13;5071848;28;20150;-75
2022/09/03 11:25:51;;;;;;;2.92;1.13;;;;;;;32.41;24.59;100936.03;5071593;28;20044;-74
2022/09/03 11:28:44;;;;;;;3.75;1.13;;;;;;;32.48;24.36;100930.31;5070703;28;20055;-76
2022/09/03 11:31:16;;;;;;;4.40;1.38;;;;;;;32.59;24.41;100934.13;5071971;28;20494;-75
2022/09/03 11:33:55;;;;;;;3.50;1.00;;;;;;;32.61;24.11;100923.59;5071775;28;20037;-75
2022/09/03 11:36:28;;;;;;;6.25;1.25;;;;;;;32.59;24.07;100931.34;5070250;28;20047;-75
2022/09/03 11:38:55;;;;;;;2.47;1.00;;;;;;;32.56;24.29;100935.47;5071490;28;20033;-75
2022/09/03 11:41:25;;;;;;;2.15;0.90;;;;;;;32.65;24.10;100931.16;5070566;28;20047;-75
2022/09/03 11:43:55;;;;;;;3.20;1.10;;;;;;;32.75;23.69;100931.38;5053885;28;20055;-75
2022/09/03 11:46:29;;;;;;;5.82;1.30;;;;;;;32.88;23.95;100919.06;5070338;28;20089;-74
2022/09/03 11:49:26;;;;;;;6.05;1.15;;;;;;;32.98;23.64;100912.81;5071476;28;20040;-74
2022/09/03 11:52:02;;;;;;;2.30;1.17;;;;;;;33.02;23.59;100919.56;5070006;28;20076;-74
2022/09/03 11:54:32;;;;;;;3.67;0.98;;;;;;;33.01;23.88;100910.38;5071812;28;20135;-75
2022/09/03 11:57:24;;;;;;;2.83;1.45;;;;;;;33.05;23.43;100911.53;5071523;28;20529;-74
2022/09/03 11:59:51;;;;;;;2.95;1.17;;;;;;;33.04;23.57;100914.59;5053860;28;20498;-75
2022/09/03 12:02:29;;;;;;;3.92;1.30;;;;;;;33.07;23.48;100914.91;5071268;28;20028;-75